createdAt,value
2017-07-23T00:00:49.200Z,18.10
2017-07-23T00:03:17.624Z,18.10
2017-07-23T00:05:45.885Z,18.10
2017-07-23T00:08:14.126Z,18.00
2017-07-23T00:10:42.381Z,18.10
2017-07-23T00:13:11.404Z,18.00
2017-07-23T00:15:39.682Z,18.00
2017-07-23T00:18:07.965Z,17.90
2017-07-23T00:20:36.283Z,17.90
2017-07-23T00:23:04.511Z,18.00
2017-07-23T00:25:32.773Z,18.00
2017-07-23T00:28:02.083Z,18.00
2017-07-23T00:30:30.322Z,18.00
2017-07-23T00:32:59.372Z,18.00
2017-07-23T00:35:27.672Z,18.00
2017-07-23T00:37:55.922Z,18.10
2017-07-23T00:40:24.202Z,18.10
2017-07-23T00:42:52.468Z,18.10
2017-07-23T00:45:21.509Z,18.00
2017-07-23T00:47:49.776Z,17.90
2017-07-23T00:50:18.037Z,17.90
2017-07-23T00:52:46.335Z,17.90
2017-07-23T00:55:14.587Z,17.80
2017-07-23T00:57:42.840Z,17.90
2017-07-23T01:00:11.884Z,18.00
2017-07-23T01:02:40.670Z,18.00
2017-07-23T01:05:08.924Z,17.90
2017-07-23T01:07:37.158Z,18.00
2017-07-23T01:10:06.210Z,18.00
2017-07-23T01:12:34.438Z,18.00
2017-07-23T01:15:03.474Z,18.10
2017-07-23T01:17:31.755Z,18.00
2017-07-23T01:20:00.000Z,18.20
2017-07-23T01:22:29.036Z,18.20
2017-07-23T01:24:57.308Z,18.20
2017-07-23T01:27:25.542Z,18.00
2017-07-23T01:29:54.545Z,18.00
2017-07-23T01:32:22.818Z,18.00
2017-07-23T01:34:51.094Z,18.00
2017-07-23T01:37:19.348Z,17.90
2017-07-23T01:39:47.593Z,17.80
2017-07-23T01:42:15.843Z,17.80
2017-07-23T01:44:44.123Z,17.80
2017-07-23T01:47:12.358Z,17.80
2017-07-23T01:49:40.638Z,17.80
2017-07-23T01:52:09.711Z,17.60
2017-07-23T01:54:38.002Z,17.60
2017-07-23T01:57:07.067Z,17.60
2017-07-23T01:59:35.333Z,17.50
2017-07-23T02:02:03.622Z,17.50
2017-07-23T02:04:31.898Z,17.50
2017-07-23T02:07:00.187Z,17.70
2017-07-23T02:09:28.434Z,17.80
2017-07-23T02:11:56.827Z,17.90
2017-07-23T02:14:25.099Z,18.00
2017-07-23T02:16:53.351Z,18.10
2017-07-23T02:19:23.199Z,18.20
2017-07-23T02:21:51.457Z,18.10
2017-07-23T02:24:19.742Z,18.20
2017-07-23T02:26:47.986Z,18.10
2017-07-23T02:29:17.006Z,18.10
2017-07-23T02:31:45.292Z,18.10
2017-07-23T02:34:13.531Z,18.20
2017-07-23T02:36:42.566Z,18.10
2017-07-23T02:39:10.814Z,18.10
2017-07-23T02:41:39.824Z,18.10
2017-07-23T02:44:08.094Z,18.20
2017-07-23T02:46:36.354Z,18.20
2017-07-23T02:49:04.578Z,18.20
2017-07-23T02:51:32.876Z,18.20
2017-07-23T02:54:01.125Z,18.10
2017-07-23T02:56:29.395Z,18.20
2017-07-23T02:58:57.658Z,18.20
2017-07-23T03:01:26.665Z,18.20
2017-07-23T03:03:54.925Z,18.10
2017-07-23T03:06:23.209Z,18.00
2017-07-23T03:08:51.464Z,18.00
2017-07-23T03:11:20.501Z,17.70
2017-07-23T03:13:48.777Z,17.70
2017-07-23T03:16:17.025Z,17.70
2017-07-23T03:18:46.044Z,17.60
2017-07-23T03:21:14.297Z,17.60
2017-07-23T03:23:43.322Z,17.60
2017-07-23T03:26:11.606Z,17.60
2017-07-23T03:28:39.881Z,17.60
2017-07-23T03:31:08.123Z,17.50
2017-07-23T03:33:36.396Z,17.40
2017-07-23T03:36:05.416Z,17.10
2017-07-23T03:38:33.679Z,17.10
2017-07-23T03:41:01.946Z,17.00
2017-07-23T03:43:30.375Z,17.00
2017-07-23T03:45:58.601Z,17.10
2017-07-23T03:48:26.854Z,17.10
2017-07-23T03:50:55.117Z,17.30
2017-07-23T03:53:23.364Z,17.20
2017-07-23T03:55:51.624Z,17.20
2017-07-23T03:58:19.913Z,17.30
2017-07-23T04:00:48.193Z,17.40
2017-07-23T04:03:16.439Z,17.50
2017-07-23T04:05:45.451Z,17.50
2017-07-23T04:08:13.712Z,17.50
2017-07-23T04:10:42.744Z,17.50
2017-07-23T04:13:10.981Z,17.50
2017-07-23T04:15:39.297Z,17.60
2017-07-23T04:18:07.538Z,17.60
2017-07-23T04:20:36.545Z,17.70
2017-07-23T04:23:04.833Z,17.70
2017-07-23T04:25:33.046Z,17.70
2017-07-23T04:28:01.313Z,17.70
2017-07-23T04:30:29.569Z,17.70
2017-07-23T04:32:57.843Z,17.70
2017-07-23T04:35:26.073Z,17.80
2017-07-23T04:37:55.099Z,17.80
2017-07-23T04:40:23.349Z,17.80
2017-07-23T04:42:52.378Z,17.70
2017-07-23T04:45:20.683Z,17.70
2017-07-23T04:47:48.899Z,17.60
2017-07-23T04:50:17.913Z,17.20
2017-07-23T04:52:46.195Z,17.20
2017-07-23T04:55:14.474Z,17.10
2017-07-23T04:57:43.452Z,17.10
2017-07-23T05:00:12.446Z,17.10
2017-07-23T05:02:40.744Z,17.10
2017-07-23T05:05:08.965Z,17.20
2017-07-23T05:07:37.240Z,17.00
2017-07-23T05:10:05.477Z,17.10
2017-07-23T05:12:33.719Z,17.20
2017-07-23T05:15:02.738Z,17.30
2017-07-23T05:17:30.994Z,17.30
2017-07-23T05:19:59.275Z,18.10
2017-07-23T05:22:28.280Z,18.70
2017-07-23T05:24:57.266Z,18.40
2017-07-23T05:27:26.310Z,18.60
2017-07-23T05:29:54.546Z,18.50
2017-07-23T05:32:22.812Z,18.60
2017-07-23T05:34:51.082Z,18.70
2017-07-23T05:37:19.313Z,18.80
2017-07-23T05:39:47.593Z,18.50
2017-07-23T05:42:15.818Z,17.90
2017-07-23T05:44:44.842Z,17.40
2017-07-23T05:47:13.135Z,17.40
2017-07-23T05:49:41.376Z,17.40
2017-07-23T05:52:10.370Z,17.30
2017-07-23T05:54:38.628Z,17.20
2017-07-23T05:57:07.643Z,17.00
2017-07-23T05:59:35.905Z,16.90
2017-07-23T06:02:04.165Z,16.90
2017-07-23T06:04:32.427Z,17.10
2017-07-23T06:07:00.694Z,17.40
2017-07-23T06:09:28.957Z,17.60
2017-07-23T06:11:57.200Z,17.60
2017-07-23T06:14:25.464Z,17.60
2017-07-23T06:16:54.473Z,17.40
2017-07-23T06:19:23.466Z,17.40
2017-07-23T06:21:51.743Z,17.40
2017-07-23T06:24:20.766Z,17.50
2017-07-23T06:26:49.036Z,17.50
2017-07-23T06:29:17.280Z,17.50
2017-07-23T06:31:45.513Z,17.50
2017-07-23T06:34:13.778Z,17.50
2017-07-23T06:36:42.050Z,17.20
2017-07-23T06:39:10.287Z,17.10
2017-07-23T06:41:39.289Z,17.10
2017-07-23T06:44:08.306Z,17.20
2017-07-23T06:46:36.581Z,17.20
2017-07-23T06:49:05.601Z,17.30
2017-07-23T06:51:33.831Z,17.30
2017-07-23T06:54:02.050Z,17.30
2017-07-23T06:56:30.543Z,17.40
2017-07-23T06:58:58.791Z,17.50
2017-07-23T07:01:27.076Z,17.40
2017-07-23T07:03:55.467Z,17.50
2017-07-23T07:06:23.707Z,17.60
2017-07-23T07:08:52.733Z,17.80
2017-07-23T07:11:20.968Z,17.80
2017-07-23T07:13:49.980Z,17.50
2017-07-23T07:16:18.206Z,17.50
2017-07-23T07:18:46.474Z,17.70
2017-07-23T07:21:14.741Z,17.60
2017-07-23T07:23:42.965Z,17.90
2017-07-23T07:26:12.109Z,18.00
2017-07-23T07:28:40.322Z,18.00
2017-07-23T07:31:08.549Z,17.80
2017-07-23T07:33:36.811Z,17.80
2017-07-23T07:36:05.221Z,18.00
2017-07-23T07:38:33.483Z,17.80
2017-07-23T07:41:01.715Z,17.90
2017-07-23T07:43:29.985Z,18.10
2017-07-23T07:45:58.246Z,18.10
2017-07-23T07:48:26.482Z,18.10
2017-07-23T07:50:54.742Z,18.20
2017-07-23T07:53:23.730Z,18.70
2017-07-23T07:55:51.993Z,18.80
2017-07-23T07:58:20.238Z,18.90
2017-07-23T08:00:48.520Z,18.60
2017-07-23T08:03:16.783Z,18.70
2017-07-23T08:05:45.010Z,19.00
2017-07-23T08:08:14.062Z,19.20
2017-07-23T08:10:42.294Z,19.20
2017-07-23T08:13:10.567Z,19.40
2017-07-23T08:15:39.587Z,19.00
2017-07-23T08:18:07.879Z,18.90
2017-07-23T08:20:36.123Z,19.10
2017-07-23T08:23:04.419Z,18.90
2017-07-23T08:25:32.699Z,18.70
2017-07-23T08:28:01.054Z,18.80
2017-07-23T08:30:29.325Z,19.00
2017-07-23T08:32:58.303Z,18.80
2017-07-23T08:35:27.336Z,18.80
2017-07-23T08:37:55.591Z,18.80
2017-07-23T08:40:24.603Z,18.60
2017-07-23T08:42:52.874Z,18.60
2017-07-23T08:45:21.140Z,18.50
2017-07-23T08:47:50.172Z,18.50
2017-07-23T08:50:18.406Z,18.50
2017-07-23T08:52:47.465Z,18.60
2017-07-23T08:55:15.701Z,18.60
2017-07-23T08:57:43.974Z,18.40
2017-07-23T09:00:12.250Z,18.40
2017-07-23T09:02:40.523Z,18.60
2017-07-23T09:05:08.812Z,18.90
2017-07-23T09:07:37.049Z,19.20
2017-07-23T09:10:06.101Z,19.50
2017-07-23T09:12:34.346Z,19.50
2017-07-23T09:15:02.615Z,19.10
2017-07-23T09:17:30.914Z,18.60
2017-07-23T09:19:59.150Z,18.50
2017-07-23T09:22:27.401Z,18.00
2017-07-23T09:24:55.665Z,17.70
2017-07-23T09:27:23.913Z,17.60
2017-07-23T09:29:52.185Z,17.50
2017-07-23T09:32:21.179Z,17.80
2017-07-23T09:34:49.452Z,17.80
2017-07-23T09:37:18.473Z,18.20
2017-07-23T09:39:46.779Z,18.10
2017-07-23T09:42:15.078Z,18.30
2017-07-23T09:44:44.159Z,18.80
2017-07-23T09:47:12.385Z,18.80
2017-07-23T09:49:40.666Z,19.10
2017-07-23T09:52:08.907Z,19.20
2017-07-23T09:54:37.172Z,18.90
2017-07-23T09:57:05.463Z,18.60
2017-07-23T09:59:33.750Z,18.10
2017-07-23T10:02:02.249Z,17.90
2017-07-23T10:04:31.302Z,17.60
2017-07-23T10:06:59.547Z,17.60
2017-07-23T10:09:27.822Z,17.60
2017-07-23T10:11:56.129Z,17.70
2017-07-23T10:14:25.198Z,18.10
2017-07-23T10:16:53.430Z,18.10
2017-07-23T10:19:22.475Z,18.60
2017-07-23T10:21:50.760Z,18.60
2017-07-23T10:24:19.083Z,18.70
2017-07-23T10:26:48.132Z,18.70
2017-07-23T10:29:16.405Z,18.60
2017-07-23T10:31:44.682Z,18.70
2017-07-23T10:34:13.085Z,18.70
2017-07-23T10:36:41.378Z,18.80
2017-07-23T10:39:09.664Z,18.80
2017-07-23T10:41:37.942Z,19.10
2017-07-23T10:44:06.207Z,19.40
2017-07-23T10:46:34.492Z,19.70
2017-07-23T10:49:02.865Z,19.90
2017-07-23T10:51:31.145Z,20.30
2017-07-23T10:53:59.404Z,20.60
2017-07-23T10:56:27.677Z,20.50
2017-07-23T10:58:55.984Z,20.50
2017-07-23T11:01:26.299Z,20.70
2017-07-23T11:03:54.532Z,20.70
2017-07-23T11:06:23.749Z,21.00
2017-07-23T11:08:52.098Z,21.20
2017-07-23T11:11:20.362Z,21.40
2017-07-23T11:13:48.661Z,21.50
2017-07-23T11:16:17.005Z,21.60
2017-07-23T11:18:45.243Z,21.60
2017-07-23T11:21:13.520Z,21.60
2017-07-23T11:23:41.782Z,21.40
2017-07-23T11:26:10.005Z,21.10
2017-07-23T11:28:38.263Z,20.80
2017-07-23T11:31:06.534Z,20.00
2017-07-23T11:33:34.795Z,20.00
2017-07-23T11:36:03.054Z,20.00
2017-07-23T11:38:31.324Z,20.00
2017-07-23T11:40:59.631Z,19.80
2017-07-23T11:43:27.907Z,19.90
2017-07-23T11:45:56.175Z,19.80
2017-07-23T11:48:24.461Z,19.90
2017-07-23T11:50:52.706Z,20.10
2017-07-23T11:53:20.942Z,20.30
2017-07-23T11:55:50.011Z,20.50
2017-07-23T11:58:18.295Z,20.50
2017-07-23T12:00:46.554Z,20.40
2017-07-23T12:03:14.798Z,20.10
2017-07-23T12:05:43.026Z,19.90
2017-07-23T12:08:11.284Z,20.00
2017-07-23T12:10:39.517Z,20.20
2017-07-23T12:13:07.822Z,19.90
2017-07-23T12:15:36.092Z,20.10
2017-07-23T12:18:04.384Z,20.30
2017-07-23T12:20:33.476Z,20.70
2017-07-23T12:23:01.734Z,21.10
2017-07-23T12:25:30.035Z,21.30
2017-07-23T12:27:58.279Z,21.10
2017-07-23T12:30:27.266Z,20.30
2017-07-23T12:32:55.581Z,20.50
2017-07-23T12:35:23.856Z,20.80
2017-07-23T12:37:52.156Z,20.60
2017-07-23T12:40:20.393Z,21.00
2017-07-23T12:42:49.361Z,21.50
2017-07-23T12:45:18.380Z,21.70
2017-07-23T12:47:47.087Z,21.70
2017-07-23T12:50:16.075Z,21.90
2017-07-23T12:52:44.305Z,21.80
2017-07-23T12:55:12.572Z,21.60
2017-07-23T12:57:40.831Z,21.20
2017-07-23T13:00:09.506Z,21.30
2017-07-23T13:02:37.776Z,21.20
2017-07-23T13:05:06.048Z,21.20
2017-07-23T13:07:34.284Z,21.30
2017-07-23T13:10:02.872Z,21.40
2017-07-23T13:12:31.127Z,21.40
2017-07-23T13:15:00.396Z,21.40
2017-07-23T13:17:28.713Z,21.00
2017-07-23T13:19:56.998Z,20.90
2017-07-23T13:22:25.583Z,21.00
2017-07-23T13:24:54.230Z,21.30
2017-07-23T13:27:22.463Z,21.60
2017-07-23T13:29:50.732Z,21.60
2017-07-23T13:32:18.987Z,21.40
2017-07-23T13:34:47.262Z,21.50
2017-07-23T13:37:16.512Z,21.50
2017-07-23T13:39:45.503Z,21.20
2017-07-23T13:42:13.779Z,21.20
2017-07-23T13:44:42.018Z,21.30
2017-07-23T13:47:10.317Z,21.10
2017-07-23T13:49:39.343Z,21.00
2017-07-23T13:52:07.622Z,21.10
2017-07-23T13:54:36.638Z,21.30
2017-07-23T13:57:04.896Z,21.30
2017-07-23T13:59:33.517Z,21.10
2017-07-23T14:02:01.758Z,21.00
2017-07-23T14:04:30.003Z,20.70
2017-07-23T14:06:59.031Z,20.90
2017-07-23T14:09:27.437Z,20.90
2017-07-23T14:11:55.702Z,21.00
2017-07-23T14:14:23.939Z,21.10
2017-07-23T14:16:52.212Z,20.60
2017-07-23T14:19:21.225Z,20.60
2017-07-23T14:21:49.482Z,20.50
2017-07-23T14:24:17.778Z,20.90
2017-07-23T14:26:46.037Z,21.00
2017-07-23T14:29:15.061Z,21.10
2017-07-23T14:31:43.333Z,21.00
2017-07-23T14:34:12.598Z,21.10
2017-07-23T14:36:40.857Z,20.80
2017-07-23T14:39:09.169Z,20.80
2017-07-23T14:41:37.773Z,20.70
2017-07-23T14:44:06.020Z,20.80
2017-07-23T14:46:35.453Z,21.00
2017-07-23T14:49:03.737Z,21.00
2017-07-23T14:51:32.007Z,21.10
2017-07-23T14:54:00.315Z,20.90
2017-07-23T14:56:28.579Z,20.80
2017-07-23T14:58:56.851Z,20.90
2017-07-23T15:01:25.125Z,21.00
2017-07-23T15:03:53.398Z,20.80
2017-07-23T15:06:21.629Z,21.00
2017-07-23T15:08:50.722Z,21.10
2017-07-23T15:11:18.964Z,21.10
2017-07-23T15:13:47.306Z,21.30
2017-07-23T15:16:15.670Z,21.20
2017-07-23T15:18:43.995Z,21.30
2017-07-23T15:21:12.283Z,21.30
2017-07-23T15:23:40.561Z,21.30
2017-07-23T15:26:08.833Z,21.20
2017-07-23T15:28:37.126Z,21.10
2017-07-23T15:31:06.291Z,21.40
2017-07-23T15:33:34.694Z,21.40
2017-07-23T15:36:03.007Z,21.50
2017-07-23T15:38:31.263Z,21.70
2017-07-23T15:40:59.613Z,21.20
2017-07-23T15:43:27.859Z,20.80
2017-07-23T15:45:56.305Z,20.50
2017-07-23T15:48:24.755Z,20.50
2017-07-23T15:50:53.932Z,20.40
2017-07-23T15:53:23.313Z,20.60
2017-07-23T15:55:52.309Z,20.60
2017-07-23T15:58:21.407Z,20.50
2017-07-23T16:00:49.706Z,20.50
2017-07-23T16:03:17.985Z,20.30
2017-07-23T16:05:46.236Z,20.30
2017-07-23T16:08:14.847Z,20.40
2017-07-23T16:10:43.066Z,20.50
2017-07-23T16:13:11.379Z,20.20
2017-07-23T16:15:39.602Z,20.20
2017-07-23T16:18:07.887Z,20.20
2017-07-23T16:20:36.198Z,20.30
2017-07-23T16:23:04.470Z,20.30
2017-07-23T16:25:32.672Z,20.10
2017-07-23T16:28:00.984Z,20.00
2017-07-23T16:30:29.276Z,19.90
2017-07-23T16:32:58.489Z,19.70
2017-07-23T16:35:26.773Z,19.70
2017-07-23T16:37:55.854Z,19.60
2017-07-23T16:40:24.159Z,19.50
2017-07-23T16:42:52.460Z,19.70
2017-07-23T16:45:20.772Z,19.50
2017-07-23T16:47:49.057Z,19.60
2017-07-23T16:50:17.343Z,19.80
2017-07-23T16:52:45.612Z,19.80
2017-07-23T16:55:13.953Z,19.90
2017-07-23T16:57:42.243Z,20.00
2017-07-23T17:00:12.180Z,20.30
2017-07-23T17:02:41.627Z,20.30
2017-07-23T17:05:10.640Z,20.40
2017-07-23T17:07:38.915Z,20.40
2017-07-23T17:10:07.187Z,20.50
2017-07-23T17:12:36.228Z,20.50
2017-07-23T17:15:04.463Z,20.40
2017-07-23T17:17:32.767Z,20.70
2017-07-23T17:20:01.071Z,20.80
2017-07-23T17:22:29.384Z,20.80
2017-07-23T17:24:57.718Z,20.80
2017-07-23T17:27:26.008Z,20.90
2017-07-23T17:29:55.063Z,20.70
2017-07-23T17:32:24.685Z,20.70
2017-07-23T17:34:52.956Z,20.50
2017-07-23T17:37:21.255Z,20.30
2017-07-23T17:39:49.537Z,20.10
2017-07-23T17:42:17.861Z,19.90
2017-07-23T17:44:46.947Z,19.70
2017-07-23T17:47:15.959Z,19.60
2017-07-23T17:49:44.248Z,19.60
2017-07-23T17:52:12.596Z,19.50
2017-07-23T17:54:40.892Z,19.50
2017-07-23T17:57:09.190Z,19.50
2017-07-23T17:59:37.783Z,19.60
2017-07-23T18:02:06.092Z,19.70
2017-07-23T18:04:34.426Z,19.70
2017-07-23T18:07:02.719Z,19.70
2017-07-23T18:09:31.041Z,19.70
2017-07-23T18:12:00.835Z,19.60
2017-07-23T18:14:29.147Z,19.60
2017-07-23T18:16:58.170Z,19.40
2017-07-23T18:19:26.450Z,19.40
2017-07-23T18:21:54.753Z,19.00
2017-07-23T18:24:23.063Z,18.50
2017-07-23T18:26:52.115Z,17.50
2017-07-23T18:29:20.448Z,17.50
2017-07-23T18:31:49.498Z,17.10
2017-07-23T18:34:17.750Z,17.10
2017-07-23T18:36:46.064Z,17.00
2017-07-23T18:39:14.306Z,17.10
2017-07-23T18:41:42.618Z,17.30
2017-07-23T18:44:11.559Z,17.30
2017-07-23T18:46:40.057Z,17.50
2017-07-23T18:49:08.322Z,17.60
2017-07-23T18:51:36.585Z,17.70
2017-07-23T18:54:05.688Z,17.50
2017-07-23T18:56:34.166Z,17.60
2017-07-23T18:59:04.271Z,17.50
2017-07-23T19:01:33.374Z,17.50
2017-07-23T19:04:02.398Z,17.40
2017-07-23T19:06:30.763Z,17.50
2017-07-23T19:08:59.093Z,17.40
2017-07-23T19:11:27.415Z,17.30
2017-07-23T19:13:56.679Z,17.20
2017-07-23T19:16:25.754Z,17.20
2017-07-23T19:18:54.427Z,17.20
2017-07-23T19:21:22.728Z,17.20
2017-07-23T19:23:51.012Z,17.30
2017-07-23T19:26:19.455Z,17.30
2017-07-23T19:28:47.666Z,17.40
2017-07-23T19:31:15.955Z,17.40
2017-07-23T19:33:44.232Z,17.30
2017-07-23T19:36:13.296Z,17.30
2017-07-23T19:38:41.601Z,17.20
2017-07-23T19:41:09.845Z,17.30
2017-07-23T19:43:38.417Z,17.30
2017-07-23T19:46:06.705Z,17.30
2017-07-23T19:48:34.972Z,17.50
2017-07-23T19:51:03.365Z,17.50
2017-07-23T19:53:31.615Z,17.40
2017-07-23T19:55:59.921Z,17.40
2017-07-23T19:58:28.164Z,17.30
2017-07-23T20:00:57.185Z,17.30
2017-07-23T20:03:25.481Z,17.30
2017-07-23T20:05:53.737Z,17.40
2017-07-23T20:08:22.009Z,17.40
2017-07-23T20:10:50.286Z,17.40
2017-07-23T20:13:18.565Z,17.40
2017-07-23T20:15:46.927Z,17.30
2017-07-23T20:18:15.184Z,17.30
2017-07-23T20:20:43.457Z,17.30
2017-07-23T20:23:11.728Z,17.30
2017-07-23T20:25:39.974Z,17.20
2017-07-23T20:28:08.332Z,17.30
2017-07-23T20:30:36.691Z,17.30
2017-07-23T20:33:05.036Z,17.30
2017-07-23T20:35:33.279Z,17.20
2017-07-23T20:38:01.581Z,17.20
2017-07-23T20:40:29.844Z,17.20
2017-07-23T20:42:58.144Z,17.20
2017-07-23T20:45:26.408Z,17.20
2017-07-23T20:47:54.716Z,17.30
2017-07-23T20:50:23.028Z,17.20
2017-07-23T20:52:52.580Z,17.20
2017-07-23T20:55:20.897Z,17.20
2017-07-23T20:57:49.176Z,17.30
2017-07-23T21:00:17.415Z,17.30
2017-07-23T21:02:45.683Z,17.20
2017-07-23T21:05:13.948Z,17.20
2017-07-23T21:07:42.210Z,17.40
2017-07-23T21:10:11.611Z,17.30
2017-07-23T21:12:39.850Z,17.30
2017-07-23T21:15:08.098Z,17.20
2017-07-23T21:17:36.408Z,17.20
2017-07-23T21:20:05.411Z,17.20
2017-07-23T21:22:33.683Z,17.20
2017-07-23T21:25:02.730Z,17.00
2017-07-23T21:27:31.027Z,17.00
2017-07-23T21:29:59.313Z,16.90
2017-07-23T21:32:27.585Z,16.80
2017-07-23T21:34:55.816Z,16.90
2017-07-23T21:37:24.103Z,17.00
2017-07-23T21:39:53.183Z,17.10
2017-07-23T21:42:21.406Z,17.10
2017-07-23T21:44:50.467Z,17.20
2017-07-23T21:47:18.746Z,17.10
2017-07-23T21:49:47.021Z,17.10
2017-07-23T21:52:15.812Z,17.20
2017-07-23T21:54:44.115Z,17.20
2017-07-23T21:57:12.371Z,17.20
2017-07-23T21:59:40.607Z,17.20
2017-07-23T22:02:08.867Z,17.30
2017-07-23T22:04:37.873Z,17.40
2017-07-23T22:07:06.888Z,17.30
2017-07-23T22:09:35.171Z,17.30
2017-07-23T22:12:03.444Z,17.30
2017-07-23T22:14:31.722Z,17.20
2017-07-23T22:17:00.714Z,17.10
2017-07-23T22:19:28.995Z,17.10
2017-07-23T22:21:57.340Z,17.10
2017-07-23T22:24:26.338Z,17.10
2017-07-23T22:26:54.602Z,17.10
2017-07-23T22:29:23.634Z,17.00
2017-07-23T22:31:51.891Z,17.00
2017-07-23T22:34:20.913Z,16.70
2017-07-23T22:36:49.190Z,16.70
2017-07-23T22:39:17.437Z,16.70
2017-07-23T22:41:46.990Z,16.60
2017-07-23T22:44:15.671Z,16.60
2017-07-23T22:46:43.943Z,16.60
2017-07-23T22:49:12.198Z,16.50
2017-07-23T22:51:41.241Z,16.40
2017-07-23T22:54:09.476Z,16.40
2017-07-23T22:56:37.745Z,16.50
2017-07-23T22:59:06.004Z,16.60
2017-07-23T23:01:35.027Z,16.80
2017-07-23T23:04:04.007Z,16.80
2017-07-23T23:06:32.271Z,16.80
2017-07-23T23:09:00.514Z,16.80
2017-07-23T23:11:29.557Z,16.80
2017-07-23T23:13:57.851Z,16.70
2017-07-23T23:16:26.096Z,16.80
2017-07-23T23:18:55.153Z,16.80
2017-07-23T23:21:23.383Z,16.70
2017-07-23T23:23:51.670Z,16.70
2017-07-23T23:26:19.895Z,16.70
2017-07-23T23:28:48.146Z,16.70
2017-07-23T23:31:16.429Z,16.80
2017-07-23T23:33:44.721Z,16.80
2017-07-23T23:36:12.966Z,16.80
2017-07-23T23:38:41.221Z,16.70
2017-07-23T23:41:09.480Z,16.80
2017-07-23T23:43:38.480Z,16.60
2017-07-23T23:46:07.510Z,16.50
2017-07-23T23:48:35.762Z,16.50
2017-07-23T23:51:04.014Z,16.50
2017-07-23T23:53:32.261Z,16.50
2017-07-23T23:56:00.514Z,16.50
2017-07-23T23:58:28.771Z,16.50
